AirNav   Duncan Aviation - Near you to keep you flying
 
 925 users online  

2K9 Haskell Airport
Haskell, Oklahoma, USA

GOING TO HASKELL?


FAA INFORMATION EFFECTIVE 02 DECEMBER 2021

Location

FAA Identifier: 2K9
Lat/Long: 35-49-58.3000N 095-40-02.7000W
35-49.971667N 095-40.045000W
35.8328611,-95.6674167
(estimated)
Elevation: 588 ft. / 179.2 m (surveyed)
Variation: 06E (1985)
From city: 1 mile NE of HASKELL, OK
Time zone: UTC -6 (UTC -5 during Daylight Saving Time)
Zip code: 74436

Airport Operations

Airport use: Open to the public
Activation date: 11/1971
Control tower: no
ARTCC: KANSAS CITY CENTER
FSS: MC ALESTER FLIGHT SERVICE STATION
NOTAMs facility: MLC (NOTAM-D service available)
Attendance: IREG
Wind indicator: yes
Segmented circle: no

Airport Communications

CTAF: 122.9
WX AWOS-3 at OKM (17 nm SW): 118.225 (918-756-9502)
WX ASOS at MKO (18 nm SE): 135.025 (918-683-6987)
WX ASOS at RVS (20 nm NW): 126.5 (918-299-0740)

Nearby radio navigation aids

VOR radial/distance  VOR name  Freq  Var
OKMr041/12.8OKMULGEE VOR/DME114.9008E
TULr157/22.6TULSA VORTAC114.4008E

 
NDB name  Hdg/Dist  Freq  Var  ID
PRESO067/14.538804EOK --- -.-
HENRYETTA029/30.826704EHET .... . -

Airport Services

Fuel available: 100LL
Parking: hangars and tiedowns
Airframe service: NONE
Powerplant service: NONE
Bottled oxygen: NONE
Bulk oxygen: NONE

Runway Information

Runway 17/35

Dimensions: 3710 x 30 ft. / 1131 x 9 m
Surface: asphalt, in fair condition
Runway edge markings: SML NRS & NTSD CNTRLN.
RUNWAY 17  RUNWAY 35
Latitude: 35-50.276955N35-49.665347N
Longitude: 095-40.049280W095-40.040760W
Elevation: 587.0 ft.584.0 ft.
Traffic pattern: left
ULTRALIGHT USE RIGHT TFC.
left
Runway heading: 173 magnetic, 179 true353 magnetic, 359 true
Markings: NSTD, in good conditionNSTD, in good condition
Obstructions: 58 ft. trees, 200 ft. from runway, 40 ft. right of centerline
56 FT TREES 170 FT FM THR 40 FT RIGHT.
none
13 FT TREES 20 FT FM THR 48 FT RIGHT; 20 FT TREES 20 FT FM THR 65 FT LEFT; 15 FT RD 40 FT FM THR.

Airport Ownership and Management from official FAA records

Ownership: Privately-owned
Owner: H.E. REYNOLDS
15576 S. 289TH E AVE
COWETA, OK 74429
Phone 918-231-3232
Manager: H.E. REYNOLDS
15576 S. 289TH E. AVE
COWETA, OK 74429
Phone 918-231-3232

Airport Operational Statistics

Aircraft based on the field: 30
Single engine airplanes: 25
Ultralights: 5
    
Aircraft operations: avg 51/week *
98% local general aviation
2% transient general aviation
* for 12-month period ending 22 September 2021

Additional Remarks

ULTRALIGHT ACT ON & INVOF ARPT.
DALGT OPS ONLY.
FOR CD CTC TULSA APPROACH AT 918-831-6714.

Instrument Procedures

There are no published instrument procedures at 2K9.

Some nearby airports with instrument procedures:

KOKM - Okmulgee Regional Airport (17 nm SW)
H68 - Hefner-Easley Airport (18 nm NE)
KMKO - Muskogee-Davis Regional Airport (18 nm SE)
KRVS - Richard Lloyd Jones Jr Airport (20 nm NW)
KTUL - Tulsa International Airport (24 nm NW)
 
Loc | Ops | Rwys | IFR | FBO | Links
Com | Nav | Svcs | Stats | Notes
Area around 2K9 (Haskell Airport)
 
Road maps at: MapQuest Bing Google
 
Aerial photo
WARNING: Photo may not be current or correct
Aerial photo of 2K9 (Haskell Airport)
Photo by Brent Butler
Photo taken 26-Aug-2010
looking North.

Do you have a better or more recent aerial photo of Haskell Airport that you would like to share? If so, please send us your photo.

 
Sectional chart

 
Airport distance calculator
Flying to Haskell Airport? Find the distance to fly.

From to 2K9

Sunrise and sunset
Times for 03-Dec-2021
 Local
(UTC-6)
 Zulu
(UTC)
Morning civil twilight06:4912:49
Sunrise07:1713:17
Sunset17:0823:08
Evening civil twilight17:3623:36

Current date and time
Zulu (UTC)  04-Dec-2021 03:20:33
Local (UTC-6)  03-Dec-2021 21:20:33
 
METAR
KOKM 
17nm SW 
040255Z AUTO 00000KT 10SM CLR 17/17 A2999 RMK AO2 T01690169
KMKO 
18nm SE 
040253Z AUTO 16005KT 7SM CLR 15/14 A3000 RMK AO2 SLP154 T01500144 51015
KRVS 
20nm NW 
040253Z 02006KT 10SM CLR 17/13 A2998 RMK AO2 SLP161 T01720128 51021
KTUL 
24nm NW 
040253Z 02005KT 10SM FEW120 SCT250 17/13 A2998 RMK AO2 SLP147 T01670128 51021
KH71 
29nm NE 
040255Z AUTO 35006KT 10SM SCT043 16/14 A2999 RMK AO2
KGCM 
29nm N 
040255Z AUTO 00000KT 10SM CLR 14/12 A3001 RMK AO2
KOWP 
31nm NW 
040255Z AUTO 03007KT 10SM CLR 17/12 A2999 RMK AO2 T01700124 PWINO
KTQH 
33nm E 
040255Z AUTO 00000KT 7SM CLR 13/11 A3001 RMK AO2
TAF
KRVS 
20nm NW 
031739Z 0318/0418 19008KT P6SM SCT120 BKN250 FM040200 02005KT P6SM SCT100 BKN250 FM040600 02007KT P6SM SCT020 BKN100 FM041200 04010G18KT P6SM BKN020
KTUL 
24nm NW 
031739Z 0318/0418 19008KT P6SM SCT120 BKN250 FM040200 02005KT P6SM SCT100 BKN250 FM040600 02007KT P6SM SCT020 BKN100 FM041200 04010G18KT P6SM BKN020
NOTAMs
Click for the latest NOTAMs
NOTAMs are issued by the DoD/FAA and will open in a separate window not controlled by AirNav.

 

 
 

FBO, Fuel Providers, and Aircraft Ground Support

  
 Business Name 
 
 Contact 
 
 Services / Description 
 
Fuel Prices
 
Comments
  
Haskell Airport 918-231-3232
no information available

If you are affiliated with Haskell Airport and would like to show here your services, contact info, web link, logo, and more, click here
100LL
SS $4.75 
 Updated 03-Dec-2021
 
   write
SS=Self service
Update Fuel Prices
 

Would you like to see your business listed on this page?

 If your business provides an interesting product or service to pilots, flight crews, aircraft, or users of the Haskell Airport, you should consider listing it here.  To start the listing process, click on the button below
 
Add a business
 

Other Pages about Haskell Airport

www.haskellairport.com
 
Update a link
 
Copyright © AirNav, LLC. All rights reserved. Privacy Policy  Contact